Time;durP1;ratioP1;P1;durP2;ratioP2;P2;SDS_P1;SDS_P2;PMS_P1;PMS_P2;Temp;Humidity;BMP_temperature;BMP_pressure;BME280_temperature;BME280_humidity;BME280_pressure;Samples;Min_cycle;Max_cycle;Signal;HPM_P1;HPM_P2
2022/11/17 00:00:54;;;;;;;;;4.50;3.25;;;;;13.54;82.06;98260.34;5055694;28;46124;-69
2022/11/17 00:03:19;;;;;;;;;7.50;3.50;;;;;13.44;80.79;98245.31;5055714;28;45344;-68
2022/11/17 00:05:45;;;;;;;;;5.50;3.25;;;;;13.60;82.73;98243.59;5055968;28;45270;-68
2022/11/17 00:08:10;;;;;;;;;2.00;2.00;;;;;13.24;81.63;98215.34;5108571;27;45522;-68
2022/11/17 00:10:36;;;;;;;;;4.25;3.25;;;;;13.59;80.89;98266.00;5055015;28;47068;-68
2022/11/17 00:15:45;;;;;;;;;3.00;3.00;;;;;13.54;81.24;98246.97;5036171;28;45350;-68
2022/11/17 00:23:47;;;;;;;;;4.25;2.00;;;;;13.65;80.63;98264.50;5035693;28;45447;-68
2022/11/17 00:26:20;;;;;;;;;6.00;3.00;;;;;13.66;80.07;98256.31;5036131;28;46217;-68
2022/11/17 00:28:45;;;;;;;;;4.75;3.75;;;;;13.33;80.16;98186.69;5035606;28;45431;-68
2022/11/17 00:34:05;;;;;;;;;6.50;3.00;;;;;13.68;79.29;98264.16;5034433;28;45223;-68
2022/11/17 00:36:39;;;;;;;;;3.00;3.00;;;;;13.68;79.51;98265.00;5035445;28;45428;-68
2022/11/17 00:39:06;;;;;;;;;8.50;4.00;;;;;13.68;78.70;98259.63;5035004;28;45629;-68
2022/11/17 00:41:31;;;;;;;;;3.00;2.00;;;;;13.70;78.88;98260.31;5035405;28;46343;-69
2022/11/17 00:43:56;;;;;;;;;3.00;3.00;;;;;13.68;79.29;98242.72;5034905;28;45356;-68
2022/11/17 00:46:22;;;;;;;;;4.33;3.33;;;;;13.79;78.41;98266.47;5017335;28;45298;-68
2022/11/17 00:48:47;;;;;;;;;5.00;2.75;;;;;13.78;77.92;98259.47;5035320;27;45216;-67
2022/11/17 00:51:12;;;;;;;;;5.75;1.75;;;;;13.64;77.64;98242.22;5035025;27;45437;-68
2022/11/17 00:53:38;;;;;;;;;4.75;1.75;;;;;13.78;78.33;98260.28;5017292;28;45348;-68
2022/11/17 00:56:03;;;;;;;;;5.00;3.25;;;;;13.82;77.72;98276.00;5017420;27;45633;-68
2022/11/17 00:58:28;;;;;;;;;5.00;2.00;;;;;13.79;77.41;98266.47;5035208;28;45288;-68
2022/11/17 01:00:54;;;;;;;;;5.00;2.50;;;;;13.83;77.51;98299.13;5016237;28;45551;-68
2022/11/17 01:03:19;;;;;;;;;3.00;1.25;;;;;13.80;76.92;98281.53;5034593;27;45269;-68
2022/11/17 01:05:44;;;;;;;;;4.67;2.00;;;;;13.77;75.96;98285.41;5034916;28;45323;-68
2022/11/17 01:08:10;;;;;;;;;0.33;0.33;;;;;13.81;75.69;98280.53;5034819;28;45175;-68
2022/11/17 01:10:35;;;;;;;;;4.33;1.00;;;;;13.79;75.68;98288.75;5034661;28;45274;-68
2022/11/17 01:13:01;;;;;;;;;4.33;1.00;;;;;13.83;75.57;98296.44;5034781;28;45351;-68
2022/11/17 01:15:26;;;;;;;;;2.75;1.00;;;;;13.82;75.64;98290.25;5033658;28;45330;-68
2022/11/17 01:17:52;;;;;;;;;6.00;3.00;;;;;13.10;75.47;98178.56;5034631;28;45422;-68
2022/11/17 01:20:17;;;;;;;;;3.25;2.00;;;;;13.45;74.43;98246.94;5034738;28;45349;-68
2022/11/17 01:22:43;;;;;;;;;1.00;1.00;;;;;13.74;74.96;98268.81;5034736;28;45511;-68
2022/11/17 01:25:08;;;;;;;;;2.67;1.00;;;;;13.78;74.17;98307.69;5000940;28;45347;-68
2022/11/17 01:27:34;;;;;;;;;0.33;0.33;;;;;13.78;73.90;98302.31;5016564;28;45322;-68
2022/11/17 01:29:59;;;;;;;;;2.75;2.50;;;;;13.82;73.86;98316.19;5034203;28;46622;-68
2022/11/17 01:32:24;;;;;;;;;1.00;0.00;;;;;13.81;72.75;98307.34;5034520;28;45387;-68
2022/11/17 01:34:50;;;;;;;;;1.00;1.00;;;;;13.85;72.72;98319.38;5034425;28;45321;-68
2022/11/17 01:37:17;;;;;;;;;0.00;0.00;;;;;13.85;72.35;98351.53;5034464;28;45344;-68
2022/11/17 01:39:43;;;;;;;;;1.33;1.00;;;;;13.87;72.34;98362.09;5034677;27;46422;-68
2022/11/17 01:42:14;;;;;;;;;3.00;0.67;;;;;13.88;72.23;98350.38;5035024;28;45316;-69
2022/11/17 01:45:00;;;;;;;;;2.67;0.67;;;;;13.84;73.28;98370.47;5035678;28;45361;-69
2022/11/17 01:47:43;;;;;;;;;0.67;0.00;;;;;13.70;74.09;98348.72;5034589;28;45451;-68
2022/11/17 01:50:19;;;;;;;;;1.33;0.00;;;;;13.25;74.98;98293.81;5034771;28;45393;-68
2022/11/17 01:52:47;;;;;;;;;2.00;1.00;;;;;13.61;74.40;98355.09;5034779;28;45379;-68
2022/11/17 01:55:13;;;;;;;;;0.00;0.00;;;;;13.65;75.19;98360.94;5034686;28;45536;-67
2022/11/17 01:57:52;;;;;;;;;0.33;0.00;;;;;13.62;75.67;98368.31;5035168;28;45416;-69
2022/11/17 02:00:18;;;;;;;;;0.00;0.00;;;;;13.65;75.58;98360.94;5016424;28;48475;-69
2022/11/17 02:02:45;;;;;;;;;0.33;0.00;;;;;13.67;74.94;98365.13;5016979;28;45433;-68
2022/11/17 02:05:16;;;;;;;;;2.00;0.33;;;;;13.66;75.24;98363.47;5034498;28;45357;-68
2022/11/17 02:07:43;;;;;;;;;0.67;0.00;;;;;13.53;74.93;98357.78;5034428;28;45387;-68
2022/11/17 02:10:09;;;;;;;;;2.00;1.00;;;;;13.34;74.23;98329.47;5016182;28;46135;-68
2022/11/17 02:12:35;;;;;;;;;0.67;0.67;;;;;13.67;74.68;98378.53;5034097;28;45359;-68
2022/11/17 02:15:03;;;;;;;;;1.67;0.00;;;;;13.62;75.01;98378.19;5016143;28;45339;-68
2022/11/17 02:17:37;;;;;;;;;0.00;0.00;;;;;13.65;74.07;98390.41;5034239;28;45244;-68
2022/11/17 02:20:13;;;;;;;;;0.00;0.00;;;;;13.63;74.63;98407.50;5033334;28;46825;-68
2022/11/17 02:23:08;;;;;;;;;1.67;1.67;;;;;13.57;74.90;98396.59;5034082;28;45242;-68
2022/11/17 02:25:59;;;;;;;;;0.00;0.00;;;;;13.56;74.91;98389.56;5034488;28;45288;-68
2022/11/17 02:28:36;;;;;;;;;0.00;0.00;;;;;13.56;75.24;98411.00;5034231;28;45502;-68
2022/11/17 02:31:20;;;;;;;;;0.00;0.00;;;;;13.61;75.29;98403.31;5033584;28;45672;-68
2022/11/17 02:34:13;;;;;;;;;0.00;0.00;;;;;13.65;74.29;98403.81;5033401;28;45403;-68
2022/11/17 02:36:51;;;;;;;;;0.25;0.00;;;;;13.64;74.39;98402.97;5033008;28;45481;-68
2022/11/17 02:39:24;;;;;;;;;0.00;0.00;;;;;13.64;74.18;98408.31;5033608;28;45510;-68
2022/11/17 02:41:56;;;;;;;;;1.00;0.00;;;;;13.56;73.19;98416.34;5033688;28;45465;-68
2022/11/17 02:44:38;;;;;;;;;1.00;1.00;;;;;13.45;72.64;98404.94;5033474;27;45347;-69
2022/11/17 02:47:16;;;;;;;;;0.00;0.00;;;;;13.63;73.04;98412.00;5033170;28;45447;-68
2022/11/17 02:49:46;;;;;;;;;1.00;0.67;;;;;13.64;73.29;98416.34;5033534;28;45459;-68
2022/11/17 02:52:14;;;;;;;;;0.00;0.00;;;;;13.59;73.52;98408.84;5033756;28;47303;-67
2022/11/17 02:54:39;;;;;;;;;0.00;0.00;;;;;12.94;73.36;98340.81;5033755;28;45618;-68
2022/11/17 02:57:05;;;;;;;;;2.33;0.00;;;;;13.46;73.82;98416.53;5034319;27;45328;-68
2022/11/17 02:59:36;;;;;;;;;0.33;0.00;;;;;13.44;74.39;98423.88;5033759;28;45251;-68
2022/11/17 03:02:13;;;;;;;;;2.33;0.00;;;;;13.38;74.64;98424.56;5033184;28;46224;-68
2022/11/17 03:05:00;;;;;;;;;0.00;0.00;;;;;13.38;75.68;98432.59;5033347;28;45264;-68
2022/11/17 03:07:39;;;;;;;;;0.67;0.00;;;;;13.35;75.91;98436.41;5033410;28;45339;-68
2022/11/17 03:10:21;;;;;;;;;1.25;0.25;;;;;13.28;75.46;98467.50;5033265;28;45318;-68
2022/11/17 03:12:52;;;;;;;;;0.00;0.00;;;;;13.19;77.70;98496.09;5032715;28;46046;-68
2022/11/17 03:15:32;;;;;;;;;2.67;0.00;;;;;13.06;83.12;98515.28;5032857;28;45278;-68
2022/11/17 03:18:08;;;;;;;;;2.00;0.00;;;;;12.88;84.05;98509.19;5033276;28;45501;-69
2022/11/17 03:20:40;;;;;;;;;0.00;0.00;;;;;12.86;84.43;98512.03;5033463;28;45384;-69
2022/11/17 03:23:15;;;;;;;;;2.00;0.00;;;;;12.83;84.39;98500.81;5015196;28;45321;-69
2022/11/17 03:25:46;;;;;;;;;0.00;0.00;;;;;12.73;84.57;98506.28;5033268;28;45240;-69
2022/11/17 03:28:14;;;;;;;;;0.67;0.00;;;;;12.63;85.30;98533.13;5033110;28;45476;-68
2022/11/17 03:30:43;;;;;;;;;0.00;0.00;;;;;12.61;85.95;98532.47;5032120;28;45473;-69
2022/11/17 03:33:16;;;;;;;;;0.00;0.00;;;;;12.59;86.22;98537.13;5033130;28;46648;-68
2022/11/17 03:35:47;;;;;;;;;1.00;0.00;;;;;12.50;86.67;98527.34;5045761;28;45418;-68
2022/11/17 03:38:17;;;;;;;;;0.00;0.00;;;;;12.34;87.14;98520.91;5123205;27;45493;-69
2022/11/17 03:40:46;;;;;;;;;0.00;0.00;;;;;12.43;88.05;98538.69;5053440;28;45513;-69
2022/11/17 03:43:15;;;;;;;;;0.00;0.00;;;;;12.47;87.93;98557.09;5052907;28;47248;-69
2022/11/17 03:45:46;;;;;;;;;0.00;0.00;;;;;12.40;87.97;98554.22;5022898;28;46027;-69
2022/11/17 03:48:21;;;;;;;;;0.00;0.00;;;;;12.36;86.97;98564.41;5033319;28;45404;-69
2022/11/17 03:50:55;;;;;;;;;0.00;0.00;;;;;12.35;87.75;98556.50;5032412;28;45527;-69
2022/11/17 03:53:21;;;;;;;;;0.00;0.00;;;;;12.38;88.79;98578.44;5033055;28;46014;-69
2022/11/17 03:56:00;;;;;;;;;0.67;0.00;;;;;12.33;87.72;98566.53;5032424;28;45417;-68
2022/11/17 03:58:30;;;;;;;;;0.00;0.00;;;;;12.33;87.37;98570.03;5030680;28;45569;-68
2022/11/17 04:00:58;;;;;;;;;0.00;0.00;;;;;12.21;89.01;98563.25;5029710;27;45438;-69
2022/11/17 04:03:31;;;;;;;;;0.00;0.00;;;;;11.90;88.82;98523.53;5026040;28;46263;-68
2022/11/17 04:05:56;;;;;;;;;0.33;0.00;;;;;12.26;88.81;98579.69;5018928;27;45494;-69
2022/11/17 04:08:24;;;;;;;;;0.00;0.00;;;;;12.36;88.68;98599.16;5028146;28;45370;-69
2022/11/17 04:16:18;;;;;;;;;1.00;0.00;;;;;12.37;88.32;98606.16;5036209;28;45440;-69
2022/11/17 04:18:43;;;;;;;;;0.00;0.00;;;;;12.39;87.99;98606.00;5033032;28;45320;-69
2022/11/17 04:21:08;;;;;;;;;0.00;0.00;;;;;12.40;87.21;98608.53;5032936;28;45701;-69
2022/11/17 04:23:34;;;;;;;;;0.00;0.00;;;;;12.39;87.22;98612.19;5033334;28;45283;-69
2022/11/17 04:28:48;;;;;;;;;0.00;0.00;;;;;12.53;86.00;98626.84;5032895;28;45308;-69
2022/11/17 04:31:25;;;;;;;;;0.00;0.00;;;;;12.49;85.32;98621.97;5032083;28;45441;-69
2022/11/17 04:33:51;;;;;;;;;1.00;0.00;;;;;12.54;85.28;98619.69;5032002;28;46453;-68
2022/11/17 04:36:22;;;;;;;;;0.00;0.00;;;;;12.44;83.69;98617.06;5031048;28;45266;-69
2022/11/17 04:38:50;;;;;;;;;0.67;0.00;;;;;12.52;84.42;98635.03;5032416;28;45351;-69
2022/11/17 04:44:02;;;;;;;;;1.00;0.00;;;;;12.32;84.54;98627.16;5035563;28;45337;-69
2022/11/17 04:46:30;;;;;;;;;0.00;0.00;;;;;12.42;84.28;98657.34;5035356;28;45453;-68
2022/11/17 04:48:56;;;;;;;;;0.00;0.00;;;;;12.40;84.68;98653.13;5035446;28;45350;-69
2022/11/17 04:51:23;;;;;;;;;3.00;0.00;;;;;12.32;85.26;98664.59;5050967;28;45446;-68
2022/11/17 04:53:48;;;;;;;;;0.00;0.00;;;;;12.18;85.84;98641.09;5035012;28;47377;-68
2022/11/17 04:56:14;;;;;;;;;0.00;0.00;;;;;11.60;86.33;98571.84;5034936;28;45800;-68
2022/11/17 04:58:40;;;;;;;;;0.00;0.00;;;;;12.20;85.18;98669.34;5034037;28;45472;-69
2022/11/17 05:01:11;;;;;;;;;1.00;0.00;;;;;11.89;85.62;98636.75;5035094;28;45371;-68
2022/11/17 05:03:47;;;;;;;;;0.00;0.00;;;;;12.20;85.12;98681.84;5035021;28;46282;-68
2022/11/17 05:06:22;;;;;;;;;2.00;1.00;;;;;12.20;85.42;98685.38;5034748;28;45371;-69
2022/11/17 05:08:48;;;;;;;;;0.00;0.00;;;;;12.13;84.79;98680.78;5035147;28;45391;-68
2022/11/17 05:13:59;;;;;;;;;0.00;0.00;;;;;12.13;83.28;98688.81;5034404;28;45390;-68
2022/11/17 05:19:19;;;;;;;;;0.00;0.00;;;;;12.08;83.19;98681.25;5035020;28;45384;-69
2022/11/17 05:21:45;;;;;;;;;0.00;0.00;;;;;12.02;82.16;98698.69;5017016;28;45437;-68
2022/11/17 05:24:13;;;;;;;;;0.00;0.00;;;;;11.98;82.13;98704.50;5034957;28;45377;-68
2022/11/17 05:26:39;;;;;;;;;0.00;0.00;;;;;11.97;81.81;98703.69;5034712;28;45327;-68
2022/11/17 05:29:06;;;;;;;;;0.00;0.00;;;;;11.88;82.11;98720.56;5034269;28;45392;-68
2022/11/17 05:31:32;;;;;;;;;1.00;0.00;;;;;11.92;82.41;98716.63;5025513;28;45507;-69
2022/11/17 05:33:58;;;;;;;;;0.00;0.00;;;;;11.93;81.94;98711.13;5035432;28;47087;-66
2022/11/17 05:36:25;;;;;;;;;0.00;0.00;;;;;11.91;81.94;98721.09;5035211;28;45355;-66
2022/11/17 05:38:50;;;;;;;;;0.00;0.00;;;;;11.90;81.75;98711.44;5035473;27;45405;-69
2022/11/17 05:41:16;;;;;;;;;0.00;0.00;;;;;11.93;82.05;98713.78;5023998;28;45419;-68
2022/11/17 05:43:42;;;;;;;;;0.67;0.00;;;;;11.87;81.97;98718.88;5016193;28;46220;-68
2022/11/17 05:46:07;;;;;;;;;0.00;0.00;;;;;11.94;81.89;98726.19;5034798;28;45307;-69
2022/11/17 05:48:33;;;;;;;;;0.00;0.00;;;;;11.95;82.31;98729.69;5034978;27;45442;-69
2022/11/17 05:50:59;;;;;;;;;0.00;0.00;;;;;11.94;81.82;98730.66;5017312;27;45335;-69
2022/11/17 05:53:25;;;;;;;;;1.00;0.00;;;;;11.99;81.99;98731.06;5027013;28;45417;-68
2022/11/17 05:56:07;;;;;;;;;0.50;0.00;;;;;12.00;82.15;98738.13;5013139;28;45494;-68
2022/11/17 05:58:35;;;;;;;;;0.00;0.00;;;;;11.69;82.33;98692.13;5014454;28;45395;-69
2022/11/17 06:01:02;;;;;;;;;0.00;0.00;;;;;11.97;82.65;98746.44;5014524;27;45300;-69
2022/11/17 06:03:34;;;;;;;;;0.00;0.00;;;;;12.06;82.99;98750.84;5014476;28;47432;-69
2022/11/17 06:05:59;;;;;;;;;0.00;0.00;;;;;12.09;82.34;98752.41;5022909;28;45396;-69
2022/11/17 06:08:26;;;;;;;;;0.00;0.00;;;;;11.64;82.07;98694.41;5016702;28;45304;-68
2022/11/17 06:10:51;;;;;;;;;0.00;0.00;;;;;11.87;82.23;98730.41;4996388;28;45418;-69
2022/11/17 06:13:18;;;;;;;;;1.00;0.00;;;;;12.03;81.34;98767.19;5022395;28;45647;-68
2022/11/17 06:15:44;;;;;;;;;0.00;0.00;;;;;12.06;81.53;98769.56;5034039;28;45343;-68
2022/11/17 06:18:15;;;;;;;;;0.00;0.00;;;;;12.03;80.83;98767.19;5010510;27;45530;-68
2022/11/17 06:20:47;;;;;;;;;1.00;0.00;;;;;12.00;80.82;98770.19;5025447;28;45488;-68
2022/11/17 06:23:15;;;;;;;;;1.00;0.00;;;;;12.00;80.76;98755.97;5033515;28;45331;-69
2022/11/17 06:25:42;;;;;;;;;0.00;0.00;;;;;12.08;79.90;98769.44;5033982;28;45287;-68
2022/11/17 06:28:11;;;;;;;;;0.00;0.00;;;;;12.12;79.61;98762.81;5033667;28;45401;-68
2022/11/17 06:30:38;;;;;;;;;0.00;0.00;;;;;12.10;79.41;98773.63;5033671;28;45578;-69
2022/11/17 06:33:07;;;;;;;;;0.00;0.00;;;;;12.10;79.59;98756.75;5033427;28;46318;-68
2022/11/17 06:35:34;;;;;;;;;0.00;0.00;;;;;12.13;79.47;98777.00;5031196;27;45518;-68
2022/11/17 06:38:00;;;;;;;;;0.00;0.00;;;;;12.03;78.16;98772.53;5033749;27;45309;-69
2022/11/17 06:40:25;;;;;;;;;0.00;0.00;;;;;11.98;79.03;98769.47;5033727;28;45556;-68
2022/11/17 06:43:05;;;;;;;;;0.00;0.00;;;;;12.06;78.73;98780.25;5033478;28;46502;-69
2022/11/17 06:45:38;;;;;;;;;2.00;0.00;;;;;12.02;78.24;98775.38;5033453;27;45260;-68
2022/11/17 06:48:05;;;;;;;;;0.00;0.00;;;;;12.06;77.86;98776.75;5033039;28;45395;-68
2022/11/17 06:50:31;;;;;;;;;1.67;0.00;;;;;11.78;77.15;98742.81;5032741;28;45416;-68
2022/11/17 06:52:59;;;;;;;;;0.00;0.00;;;;;11.95;76.97;98770.59;5033336;28;46495;-68
2022/11/17 06:55:24;;;;;;;;;0.00;0.00;;;;;11.94;77.22;98778.75;5015615;28;45367;-68
2022/11/17 06:57:50;;;;;;;;;0.00;0.00;;;;;11.94;77.16;98787.66;5030066;27;45457;-66
2022/11/17 07:00:16;;;;;;;;;0.00;0.00;;;;;11.94;77.75;98793.00;5021367;28;45439;-68
2022/11/17 07:02:42;;;;;;;;;0.00;0.00;;;;;11.93;76.85;98790.41;5013194;28;45343;-68
2022/11/17 07:05:07;;;;;;;;;2.75;0.00;;;;;11.99;76.85;98791.72;5012806;28;45342;-68
2022/11/17 07:07:33;;;;;;;;;0.00;0.00;;;;;11.97;77.09;98786.50;5013422;28;45359;-68
2022/11/17 07:09:58;;;;;;;;;0.67;0.67;;;;;11.93;77.35;98796.63;5026526;28;45275;-68
2022/11/17 07:12:23;;;;;;;;;3.25;2.25;;;;;11.86;77.57;98783.97;5033208;28;45349;-69
2022/11/17 07:14:49;;;;;;;;;3.25;2.25;;;;;11.90;78.44;98799.59;5004893;28;45338;-68
2022/11/17 07:17:14;;;;;;;;;1.50;0.50;;;;;11.97;78.86;98807.03;5032072;28;45447;-68
2022/11/17 07:19:39;;;;;;;;;1.00;0.00;;;;;12.04;78.51;98813.47;5032729;28;45304;-68
2022/11/17 07:22:05;;;;;;;;;1.00;1.00;;;;;12.06;78.76;98804.31;5033157;28;45328;-68
2022/11/17 07:24:30;;;;;;;;;3.75;0.00;;;;;12.07;78.66;98816.69;5102130;27;45481;-68
2022/11/17 07:26:55;;;;;;;;;0.00;0.00;;;;;12.05;78.54;98818.69;5033479;28;45455;-69
2022/11/17 07:29:21;;;;;;;;;0.00;0.00;;;;;12.13;78.45;98825.09;5033376;28;45553;-68
2022/11/17 07:31:46;;;;;;;;;1.00;0.00;;;;;12.13;78.58;98819.75;5033141;28;46479;-68
2022/11/17 07:34:11;;;;;;;;;1.00;1.00;;;;;12.14;79.18;98808.09;5032675;28;45545;-68
2022/11/17 07:36:37;;;;;;;;;1.75;1.75;;;;;12.15;78.81;98807.06;5033087;28;45422;-68
2022/11/17 07:39:04;;;;;;;;;0.50;0.50;;;;;12.09;78.86;98837.91;5033161;28;45335;-68
2022/11/17 07:41:30;;;;;;;;;2.25;0.75;;;;;12.22;79.34;98819.72;5031658;28;46581;-69
2022/11/17 07:43:57;;;;;;;;;3.00;0.00;;;;;11.91;78.14;98760.34;5030678;28;45412;-68
2022/11/17 07:46:22;;;;;;;;;0.50;0.25;;;;;12.26;78.11;98826.44;5033047;27;45282;-68
2022/11/17 07:48:48;;;;;;;;;0.00;0.00;;;;;12.07;78.07;98789.97;5013920;28;45311;-69
2022/11/17 07:51:14;;;;;;;;;4.25;1.00;;;;;12.28;77.68;98840.50;5101567;27;45518;-68
2022/11/17 07:53:40;;;;;;;;;0.00;0.00;;;;;12.28;77.61;98836.97;5032424;28;45269;-68
2022/11/17 07:56:08;;;;;;;;;1.75;1.00;;;;;12.25;77.51;98834.63;5031386;28;45295;-68
2022/11/17 07:58:33;;;;;;;;;3.75;0.75;;;;;12.31;77.68;98843.88;5032829;28;45366;-68
2022/11/17 08:01:11;;;;;;;;;0.00;0.00;;;;;11.99;77.89;98787.19;5032228;27;46514;-68
2022/11/17 08:03:36;;;;;;;;;0.67;0.00;;;;;12.44;77.97;98847.03;5030914;28;45378;-69
2022/11/17 08:06:03;;;;;;;;;1.75;0.00;;;;;12.44;77.59;98849.72;5101647;27;45381;-66
2022/11/17 08:08:29;;;;;;;;;1.25;0.50;;;;;12.45;77.81;98846.88;5033059;28;45307;-69
2022/11/17 08:10:54;;;;;;;;;0.75;0.75;;;;;12.47;77.76;98845.91;5032557;28;45381;-68
2022/11/17 08:13:19;;;;;;;;;2.33;0.67;;;;;12.56;77.61;98853.84;5032493;28;45442;-68
2022/11/17 08:15:45;;;;;;;;;1.67;0.00;;;;;12.46;77.09;98845.06;5032458;28;45260;-68
2022/11/17 08:18:10;;;;;;;;;1.00;1.00;;;;;12.54;77.49;98857.69;5035302;28;45223;-68
2022/11/17 08:20:35;;;;;;;;;0.33;0.33;;;;;12.54;78.03;98855.03;5017323;28;45663;-67
2022/11/17 08:23:01;;;;;;;;;2.75;1.00;;;;;12.71;77.98;98864.88;5017501;27;45291;-68
2022/11/17 08:25:27;;;;;;;;;0.00;0.00;;;;;12.66;77.55;98860.97;5034354;28;45440;-68
2022/11/17 08:27:56;;;;;;;;;1.00;1.00;;;;;12.59;78.04;98863.41;5035698;28;45456;-68
2022/11/17 08:30:22;;;;;;;;;2.00;0.25;;;;;12.62;78.76;98868.50;5016708;28;45346;-68
2022/11/17 08:32:51;;;;;;;;;0.33;0.00;;;;;12.54;81.00;98868.41;5035128;28;45442;-67
2022/11/17 08:35:19;;;;;;;;;1.00;1.00;;;;;12.56;81.96;98866.41;5035413;28;45375;-67
2022/11/17 08:37:44;;;;;;;;;1.00;1.00;;;;;12.58;81.47;98861.75;5035115;28;45345;-67
2022/11/17 08:40:11;;;;;;;;;0.25;0.00;;;;;12.48;82.18;98848.41;5035341;28;47284;-68
2022/11/17 08:42:36;;;;;;;;;1.25;1.25;;;;;12.55;82.31;98867.38;5035089;28;45481;-68
2022/11/17 08:45:03;;;;;;;;;0.50;0.50;;;;;12.68;82.05;98865.19;5035106;28;45287;-68
2022/11/17 08:47:29;;;;;;;;;1.00;1.00;;;;;12.32;81.74;98811.63;5035231;28;45335;-69
2022/11/17 08:49:54;;;;;;;;;0.00;0.00;;;;;12.73;80.99;98862.09;5035027;28;46098;-68
2022/11/17 08:52:20;;;;;;;;;1.00;1.00;;;;;12.73;80.33;98862.91;5035177;27;45356;-69
2022/11/17 08:54:45;;;;;;;;;0.00;0.00;;;;;12.95;80.55;98871.50;5035301;28;45395;-68
2022/11/17 08:57:10;;;;;;;;;0.67;0.00;;;;;12.89;78.26;98842.66;5034998;28;45375;-68
2022/11/17 08:59:36;;;;;;;;;3.25;1.00;;;;;13.02;78.90;98861.84;5034977;28;45275;-68
2022/11/17 09:02:01;;;;;;;;;2.00;1.00;;;;;12.79;77.73;98818.66;5034963;28;45209;-69
2022/11/17 09:04:27;;;;;;;;;1.00;0.33;;;;;13.19;76.54;98860.19;5017243;27;45416;-68
2022/11/17 09:06:52;;;;;;;;;1.25;0.00;;;;;12.92;76.27;98778.16;5034991;28;45479;-68
2022/11/17 09:09:18;;;;;;;;;0.00;0.00;;;;;13.59;75.60;98860.69;5017175;28;47182;-67
2022/11/17 09:11:43;;;;;;;;;3.67;1.00;;;;;13.69;75.40;98855.25;5035641;27;45358;-67
2022/11/17 09:14:08;;;;;;;;;2.00;1.00;;;;;13.86;74.38;98866.91;5035002;28;45509;-67
2022/11/17 09:16:35;;;;;;;;;2.67;1.33;;;;;14.02;74.75;98875.03;5034718;28;45282;-68
2022/11/17 09:19:01;;;;;;;;;0.00;0.00;;;;;13.76;73.95;98835.69;5034566;28;46254;-68
2022/11/17 09:21:28;;;;;;;;;3.50;1.00;;;;;13.85;74.25;98883.97;5034396;28;45426;-68
2022/11/17 09:23:54;;;;;;;;;2.00;1.00;;;;;13.78;73.81;98878.44;5034957;28;45430;-68
2022/11/17 09:26:20;;;;;;;;;1.00;1.00;;;;;13.66;74.63;98883.19;5034485;28;45362;-68
2022/11/17 09:28:46;;;;;;;;;2.00;1.00;;;;;13.57;74.96;98865.38;5033134;28;47215;-68
2022/11/17 09:31:17;;;;;;;;;3.00;1.00;;;;;13.60;75.20;98878.44;5033900;28;45355;-68
2022/11/17 09:33:43;;;;;;;;;5.00;1.00;;;;;13.76;75.15;98891.97;5016679;28;45309;-67
2022/11/17 09:36:10;;;;;;;;;4.00;1.00;;;;;13.87;74.77;98895.38;5016642;28;45388;-67
2022/11/17 09:38:36;;;;;;;;;0.00;0.00;;;;;13.93;74.38;98890.25;5034199;28;47085;-68
2022/11/17 09:41:17;;;;;;;;;2.00;1.67;;;;;13.92;74.01;98890.41;5036712;28;45265;-68
2022/11/17 09:43:51;;;;;;;;;1.33;1.00;;;;;13.97;74.07;98885.41;5055363;27;45417;-67
2022/11/17 09:46:29;;;;;;;;;0.33;0.33;;;;;14.07;72.92;98894.16;5055109;28;45405;-67
2022/11/17 09:49:05;;;;;;;;;2.33;1.00;;;;;14.34;72.54;98892.31;5054445;28;46345;-67
2022/11/17 09:51:37;;;;;;;;;1.75;1.00;;;;;14.60;72.00;98900.31;5124078;27;45401;-67
2022/11/17 09:54:20;;;;;;;;;3.00;1.00;;;;;14.83;71.03;98898.91;5054438;27;45343;-67
2022/11/17 09:56:46;;;;;;;;;1.00;1.00;;;;;14.55;71.06;98865.06;5054187;28;45382;-67
2022/11/17 09:59:18;;;;;;;;;0.00;0.00;;;;;14.96;71.39;98907.31;5052159;28;45481;-67
2022/11/17 10:01:43;;;;;;;;;2.00;2.00;;;;;15.05;71.15;98910.84;5045053;28;45464;-67
2022/11/17 10:04:11;;;;;;;;;0.00;0.00;;;;;15.11;71.19;98908.34;5032674;28;45734;-67
2022/11/17 10:06:37;;;;;;;;;2.67;1.00;;;;;15.21;70.24;98912.72;5032931;28;45477;-67
2022/11/17 10:09:18;;;;;;;;;2.00;1.00;;;;;15.39;70.29;98910.75;5033760;28;46265;-67
2022/11/17 10:11:45;;;;;;;;;1.67;1.33;;;;;15.53;70.75;98919.97;5034004;28;45332;-67
2022/11/17 10:14:16;;;;;;;;;1.33;0.00;;;;;15.63;70.24;98911.78;5033990;28;45512;-66
2022/11/17 10:16:54;;;;;;;;;2.00;0.00;;;;;15.64;70.39;98927.72;5034002;28;45536;-66
2022/11/17 10:19:23;;;;;;;;;2.33;2.33;;;;;15.56;69.53;98926.88;5033473;28;45359;-67
2022/11/17 10:21:56;;;;;;;;;3.00;2.00;;;;;15.56;70.55;98906.22;5033447;28;45352;-67
2022/11/17 10:24:54;;;;;;;;;4.00;2.00;;;;;15.35;69.39;98917.47;5033903;28;45366;-67
2022/11/17 10:27:23;;;;;;;;;5.00;1.00;;;;;15.22;70.33;98909.03;5037707;27;45509;-66
2022/11/17 10:30:08;;;;;;;;;2.00;2.00;;;;;15.05;70.25;98897.44;5033368;28;46459;-67
2022/11/17 10:32:36;;;;;;;;;1.67;1.67;;;;;14.98;70.08;98891.88;5033414;28;45328;-67
2022/11/17 10:35:19;;;;;;;;;0.33;0.33;;;;;15.28;71.04;98894.97;5033655;28;45305;-67
2022/11/17 10:37:58;;;;;;;;;3.00;2.00;;;;;15.25;69.62;98897.97;5032024;28;45531;-67
2022/11/17 10:40:32;;;;;;;;;3.75;2.50;;;;;15.16;69.37;98912.38;5033054;28;46609;-66
2022/11/17 10:43:03;;;;;;;;;2.00;0.67;;;;;15.16;70.30;98909.69;5033388;28;45407;-67
2022/11/17 10:45:29;;;;;;;;;2.00;1.00;;;;;15.18;68.73;98907.69;5033866;28;45358;-67
2022/11/17 10:48:21;;;;;;;;;2.33;0.00;;;;;15.05;67.54;98900.97;5033823;28;45368;-66
2022/11/17 10:50:59;;;;;;;;;4.33;1.00;;;;;14.94;69.01;98909.31;5033422;28;46204;-66
2022/11/17 10:53:29;;;;;;;;;1.67;0.00;;;;;14.43;68.60;98839.53;5033401;28;45360;-67
2022/11/17 10:56:10;;;;;;;;;3.00;2.00;;;;;14.75;68.30;98905.06;5033601;28;45528;-67
2022/11/17 10:58:57;;;;;;;;;1.00;1.00;;;;;14.84;69.19;98903.25;5033081;28;45425;-66
2022/11/17 11:01:32;;;;;;;;;2.00;1.00;;;;;15.01;67.43;98894.25;5033183;27;46371;-66
2022/11/17 11:03:57;;;;;;;;;2.00;1.33;;;;;14.94;67.78;98901.25;5043478;28;45481;-67
2022/11/17 11:06:28;;;;;;;;;1.00;1.00;;;;;14.84;66.85;98897.91;5053638;28;45262;-67
2022/11/17 11:09:10;;;;;;;;;1.00;1.00;;;;;15.01;67.67;98891.56;5053020;28;45441;-67
2022/11/17 11:11:35;;;;;;;;;5.00;4.00;;;;;15.22;67.05;98898.31;5032415;28;46274;-68
2022/11/17 11:14:10;;;;;;;;;0.33;0.00;;;;;15.18;67.24;98872.78;5027921;28;45363;-67
2022/11/17 11:16:35;;;;;;;;;1.00;1.00;;;;;15.39;66.30;98897.31;5033431;27;45335;-67
2022/11/17 11:19:01;;;;;;;;;0.00;0.00;;;;;15.17;65.35;98838.88;5016746;27;45472;-68
2022/11/17 11:21:48;;;;;;;;;2.00;1.00;;;;;15.63;66.13;98892.97;5053356;27;45808;-67
2022/11/17 11:24:13;;;;;;;;;0.67;0.00;;;;;15.44;64.60;98891.41;5053798;28;45313;-67
2022/11/17 11:26:54;;;;;;;;;2.33;1.33;;;;;15.48;64.55;98885.56;5053166;28;45354;-68
2022/11/17 11:29:32;;;;;;;;;1.33;1.33;;;;;15.45;65.25;98891.28;5053878;28;45319;-67
2022/11/17 11:32:03;;;;;;;;;1.00;1.00;;;;;15.46;64.67;98889.41;5042803;28;46388;-67
2022/11/17 11:34:50;;;;;;;;;1.00;1.00;;;;;15.55;64.13;98882.19;5030472;27;45475;-68
2022/11/17 11:37:16;;;;;;;;;0.00;0.00;;;;;15.64;63.82;98882.03;5032735;28;45455;-67
2022/11/17 11:40:01;;;;;;;;;1.00;0.00;;;;;15.85;63.67;98890.63;5033142;27;45473;-67
2022/11/17 11:42:33;;;;;;;;;1.00;0.33;;;;;15.85;63.79;98883.38;5032228;28;47332;-68
2022/11/17 11:45:28;;;;;;;;;0.00;0.00;;;;;15.90;62.46;98888.22;5032465;28;45242;-69
2022/11/17 11:48:09;;;;;;;;;0.00;0.00;;;;;15.85;61.62;98885.25;5073436;28;45372;-67
2022/11/17 11:50:55;;;;;;;;;1.00;1.00;;;;;15.71;60.89;98892.94;5069190;28;45894;-67
2022/11/17 11:53:39;;;;;;;;;0.00;0.00;;;;;15.71;61.99;98894.78;5064579;28;45406;-68
2022/11/17 11:56:14;;;;;;;;;0.00;0.00;;;;;15.33;62.85;98844.25;5059543;28;45442;-68
2022/11/17 11:58:45;;;;;;;;;1.00;0.00;;;;;15.46;62.08;98890.25;5076552;28;45493;-69
2022/11/17 12:01:13;;;;;;;;;0.00;0.00;;;;;15.31;61.84;98883.88;5093459;27;45631;-68
2022/11/17 12:03:47;;;;;;;;;0.00;0.00;;;;;15.09;62.58;98891.56;5080591;27;45421;-67
2022/11/17 12:06:52;;;;;;;;;0.00;0.00;;;;;15.02;62.72;98895.94;5078645;28;45731;-67
2022/11/17 12:09:24;;;;;;;;;0.00;0.00;;;;;14.89;63.52;98890.19;5025134;28;45454;-66
2022/11/17 12:12:01;;;;;;;;;0.00;0.00;;;;;14.88;63.35;98888.50;5076907;28;45504;-68
2022/11/17 12:14:31;;;;;;;;;1.67;0.00;;;;;14.70;63.47;98884.09;5058758;27;46275;-67